createdAt,value
2023-03-17T00:01:16.863Z,506.00
2023-03-17T00:05:16.994Z,514.00
2023-03-17T00:09:17.140Z,509.00
2023-03-17T00:13:17.290Z,503.00
2023-03-17T00:17:17.435Z,505.00
2023-03-17T00:21:17.628Z,507.00
2023-03-17T00:25:17.731Z,502.00
2023-03-17T00:29:17.923Z,508.00
2023-03-17T00:33:18.095Z,508.00
2023-03-17T00:37:18.218Z,504.00
2023-03-17T00:41:18.413Z,509.00
2023-03-17T00:45:18.558Z,503.00
2023-03-17T00:49:18.754Z,507.00
2023-03-17T00:53:18.956Z,502.00
2023-03-17T00:57:19.112Z,506.00
2023-03-17T01:01:19.370Z,509.00
2023-03-17T01:05:19.491Z,504.00
2023-03-17T01:09:19.685Z,507.00
2023-03-17T01:13:19.887Z,503.00
2023-03-17T01:17:20.109Z,506.00
2023-03-17T01:21:20.320Z,505.00
2023-03-17T01:25:20.528Z,503.00
2023-03-17T01:29:20.486Z,503.00
2023-03-17T01:33:20.476Z,505.00
2023-03-17T01:37:20.433Z,505.00
2023-03-17T01:41:20.380Z,503.00
2023-03-17T01:45:20.311Z,507.00
2023-03-17T01:49:20.337Z,506.00
2023-03-17T01:53:20.304Z,505.00
2023-03-17T01:57:20.220Z,506.00
2023-03-17T02:01:20.242Z,502.00
2023-03-17T02:05:20.298Z,503.00
2023-03-17T02:09:20.268Z,500.00
2023-03-17T02:13:20.293Z,502.00
2023-03-17T02:17:20.222Z,504.00
2023-03-17T02:21:20.147Z,505.00
2023-03-17T02:25:20.131Z,504.00
2023-03-17T02:29:20.076Z,501.00
2023-03-17T02:33:20.062Z,501.00
2023-03-17T02:37:19.991Z,503.00
2023-03-17T02:41:19.981Z,507.00
2023-03-17T02:45:20.099Z,510.00
2023-03-17T02:49:20.063Z,503.00
2023-03-17T02:53:20.040Z,505.00
2023-03-17T02:57:20.001Z,501.00
2023-03-17T03:01:20.003Z,510.00
2023-03-17T03:05:19.914Z,505.00
2023-03-17T03:09:19.884Z,506.00
2023-03-17T03:13:19.844Z,503.00
2023-03-17T03:17:19.819Z,506.00
2023-03-17T03:21:19.773Z,505.00
2023-03-17T03:25:19.739Z,510.00
2023-03-17T03:29:19.682Z,506.00
2023-03-17T03:33:19.677Z,505.00
2023-03-17T03:37:19.608Z,506.00
2023-03-17T03:41:19.572Z,501.00
2023-03-17T03:45:19.602Z,503.00
2023-03-17T03:49:19.676Z,512.00
2023-03-17T03:53:19.761Z,508.00
2023-03-17T03:57:19.802Z,511.00
2023-03-17T04:01:19.848Z,504.00
2023-03-17T04:05:19.860Z,506.00
2023-03-17T04:09:19.898Z,506.00
2023-03-17T04:13:19.949Z,512.00
2023-03-17T04:17:19.985Z,506.00
2023-03-17T04:21:20.078Z,509.00
2023-03-17T04:25:20.185Z,504.00
2023-03-17T04:29:20.156Z,508.00
2023-03-17T04:33:20.161Z,509.00
2023-03-17T04:37:20.142Z,508.00
2023-03-17T04:41:20.079Z,508.00
2023-03-17T04:45:20.113Z,509.00
2023-03-17T04:49:20.070Z,511.00
2023-03-17T04:53:20.099Z,511.00
2023-03-17T04:57:20.055Z,503.00
2023-03-17T05:01:20.057Z,505.00
2023-03-17T05:05:20.016Z,507.00
2023-03-17T05:09:20.025Z,501.00
2023-03-17T05:13:20.002Z,510.00
2023-03-17T05:17:20.046Z,507.00
2023-03-17T05:21:20.001Z,504.00
2023-03-17T05:25:20.038Z,507.00
2023-03-17T05:29:20.062Z,506.00
2023-03-17T05:33:20.067Z,508.00
2023-03-17T05:37:20.083Z,502.00
2023-03-17T05:41:20.100Z,504.00
2023-03-17T05:45:20.117Z,504.00
2023-03-17T05:49:20.218Z,502.00
2023-03-17T05:53:20.166Z,506.00
2023-03-17T05:57:20.183Z,510.00
2023-03-17T06:01:20.174Z,509.00
2023-03-17T06:05:20.207Z,506.00
2023-03-17T06:09:20.244Z,503.00
2023-03-17T06:13:20.266Z,504.00
2023-03-17T06:17:20.289Z,508.00
2023-03-17T06:21:20.322Z,501.00
2023-03-17T06:25:20.343Z,505.00
2023-03-17T06:29:20.345Z,509.00
2023-03-17T06:33:20.353Z,505.00
2023-03-17T06:37:20.357Z,511.00
2023-03-17T06:41:20.391Z,512.00
2023-03-17T06:45:20.596Z,514.00
2023-03-17T06:49:20.609Z,545.00
2023-03-17T06:53:20.634Z,591.00
2023-03-17T06:57:20.622Z,561.00
2023-03-17T07:01:20.341Z,557.00
2023-03-17T07:05:20.284Z,561.00
2023-03-17T07:09:20.609Z,553.00
2023-03-17T07:13:20.258Z,556.00
2023-03-17T07:17:20.222Z,558.00
2023-03-17T07:21:20.248Z,562.00
2023-03-17T07:25:20.262Z,560.00
2023-03-17T07:29:20.621Z,559.00
2023-03-17T07:33:20.217Z,560.00
2023-03-17T07:37:20.206Z,561.00
2023-03-17T07:41:20.655Z,562.00
2023-03-17T07:45:20.639Z,560.00
2023-03-17T07:49:34.005Z,569.00
2023-03-17T07:53:21.307Z,441.00
2023-03-17T07:57:20.674Z,583.00
2023-03-17T08:01:20.526Z,806.00
2023-03-17T08:05:21.638Z,1019.00
2023-03-17T08:09:20.658Z,1205.00
2023-03-17T08:13:20.784Z,1389.00
2023-03-17T08:17:20.951Z,1545.00
2023-03-17T08:21:21.150Z,1617.00
2023-03-17T08:25:21.015Z,1714.00
2023-03-17T08:29:21.164Z,1861.00
2023-03-17T08:33:21.210Z,2033.00
2023-03-17T08:37:21.071Z,2149.00
2023-03-17T08:41:21.148Z,2091.00
2023-03-17T08:45:21.058Z,1913.00
2023-03-17T08:49:21.158Z,1970.00
2023-03-17T08:53:21.180Z,2032.00
2023-03-17T08:57:21.153Z,2060.00
2023-03-17T09:01:20.997Z,2141.00
2023-03-17T09:05:20.842Z,2198.00
2023-03-17T09:09:21.168Z,2262.00
2023-03-17T09:13:20.794Z,2358.00
2023-03-17T09:17:20.712Z,2466.00
2023-03-17T09:21:20.683Z,2544.00
2023-03-17T09:25:20.671Z,2552.00
2023-03-17T09:29:20.616Z,2585.00
2023-03-17T09:33:20.586Z,2610.00
2023-03-17T09:37:20.691Z,2687.00
2023-03-17T09:41:20.511Z,2754.00
2023-03-17T09:45:20.657Z,2840.00
2023-03-17T09:49:20.462Z,2749.00
2023-03-17T09:53:20.728Z,2622.00
2023-03-17T09:57:20.461Z,2408.00
2023-03-17T10:01:20.621Z,2302.00
2023-03-17T10:05:21.298Z,2437.00
2023-03-17T10:09:20.864Z,2569.00
2023-03-17T10:13:20.852Z,2604.00
2023-03-17T10:17:20.816Z,2636.00
2023-03-17T10:21:20.785Z,2753.00
2023-03-17T10:25:21.197Z,2849.00
2023-03-17T10:29:20.885Z,2866.00
2023-03-17T10:33:21.047Z,2888.00
2023-03-17T10:37:21.030Z,2894.00
2023-03-17T10:41:21.202Z,2973.00
2023-03-17T10:45:21.201Z,3086.00
2023-03-17T10:49:20.884Z,2830.00
2023-03-17T10:53:21.220Z,1558.00
2023-03-17T10:57:21.202Z,1577.00
2023-03-17T11:01:20.870Z,1787.00
2023-03-17T11:05:21.202Z,1614.00
2023-03-17T11:09:20.707Z,1734.00
2023-03-17T11:13:20.708Z,1685.00
2023-03-17T11:17:20.671Z,1808.00
2023-03-17T11:21:20.614Z,1757.00
2023-03-17T11:25:20.596Z,1730.00
2023-03-17T11:29:20.580Z,1747.00
2023-03-17T11:33:20.736Z,1789.00
2023-03-17T11:37:20.701Z,1821.00
2023-03-17T11:41:20.445Z,1838.00
2023-03-17T11:45:20.723Z,1758.00
2023-03-17T11:49:20.710Z,1741.00
2023-03-17T11:53:21.354Z,1734.00
2023-03-17T11:57:20.389Z,1704.00
2023-03-17T12:01:20.448Z,1614.00
2023-03-17T12:05:20.521Z,1574.00
2023-03-17T12:09:20.733Z,1565.00
2023-03-17T12:13:20.827Z,1504.00
2023-03-17T12:17:20.871Z,1443.00
2023-03-17T12:21:20.955Z,1432.00
2023-03-17T12:25:21.239Z,1398.00
2023-03-17T12:29:21.225Z,1367.00
2023-03-17T12:33:21.203Z,1345.00
2023-03-17T12:37:21.747Z,1318.00
2023-03-17T12:41:21.381Z,1291.00
2023-03-17T12:45:21.420Z,1271.00
2023-03-17T12:49:21.493Z,1201.00
2023-03-17T12:53:21.489Z,1198.00
2023-03-17T12:57:21.548Z,1209.00
2023-03-17T13:01:21.582Z,1209.00
2023-03-17T13:05:21.577Z,1196.00
2023-03-17T13:09:21.548Z,1160.00
2023-03-17T13:13:21.767Z,1196.00
2023-03-17T13:17:21.856Z,1230.00
2023-03-17T13:21:21.880Z,1223.00
2023-03-17T13:25:22.093Z,1165.00
2023-03-17T13:29:22.208Z,1132.00
2023-03-17T13:33:22.367Z,1097.00
2023-03-17T13:37:22.431Z,1046.00
2023-03-17T13:41:22.569Z,1028.00
2023-03-17T13:45:22.635Z,1013.00
2023-03-17T13:49:22.818Z,981.00
2023-03-17T13:53:22.981Z,983.00
2023-03-17T13:57:23.161Z,967.00
2023-03-17T14:01:23.300Z,960.00
2023-03-17T14:05:23.442Z,944.00
2023-03-17T14:09:23.533Z,931.00
2023-03-17T14:13:23.656Z,926.00
2023-03-17T14:17:23.766Z,926.00
2023-03-17T14:21:23.929Z,902.00
2023-03-17T14:25:24.058Z,907.00
2023-03-17T14:29:24.283Z,892.00
2023-03-17T14:33:24.447Z,885.00
2023-03-17T14:37:24.394Z,882.00
2023-03-17T14:41:24.380Z,869.00
2023-03-17T14:45:24.372Z,865.00
2023-03-17T14:49:24.302Z,868.00
2023-03-17T14:53:24.271Z,860.00
2023-03-17T14:57:24.240Z,837.00
2023-03-17T15:01:24.202Z,839.00
2023-03-17T15:05:24.187Z,829.00
2023-03-17T15:09:24.158Z,836.00
2023-03-17T15:13:24.171Z,804.00
2023-03-17T15:17:24.138Z,806.00
2023-03-17T15:21:24.092Z,788.00
2023-03-17T15:25:24.072Z,780.00
2023-03-17T15:29:24.026Z,767.00
2023-03-17T15:33:23.997Z,765.00
2023-03-17T15:37:23.957Z,751.00
2023-03-17T15:41:23.931Z,753.00
2023-03-17T15:45:23.886Z,740.00
2023-03-17T15:49:26.477Z,730.00
2023-03-17T15:53:23.824Z,714.00
2023-03-17T15:57:23.763Z,710.00
2023-03-17T16:01:26.510Z,690.00
2023-03-17T16:05:23.693Z,694.00
2023-03-17T16:09:23.640Z,682.00
2023-03-17T16:13:23.614Z,678.00
2023-03-17T16:17:25.309Z,675.00
2023-03-17T16:21:23.586Z,670.00
2023-03-17T16:25:23.509Z,664.00
2023-03-17T16:29:23.573Z,658.00
2023-03-17T16:33:23.448Z,652.00
2023-03-17T16:37:23.437Z,663.00
2023-03-17T16:41:23.380Z,654.00
2023-03-17T16:45:23.363Z,649.00
2023-03-17T16:49:23.318Z,639.00
2023-03-17T16:53:23.276Z,646.00
2023-03-17T16:57:23.271Z,641.00
2023-03-17T17:01:23.233Z,630.00
2023-03-17T17:05:23.188Z,629.00
2023-03-17T17:09:23.331Z,634.00
2023-03-17T17:13:23.122Z,622.00
2023-03-17T17:17:23.054Z,620.00
2023-03-17T17:21:23.031Z,620.00
2023-03-17T17:25:22.997Z,617.00
2023-03-17T17:29:22.949Z,616.00
2023-03-17T17:33:22.918Z,606.00
2023-03-17T17:37:23.100Z,604.00
2023-03-17T17:41:23.241Z,603.00
2023-03-17T17:45:23.467Z,595.00
2023-03-17T17:49:23.882Z,597.00
2023-03-17T17:53:23.839Z,588.00
2023-03-17T17:57:24.081Z,592.00
2023-03-17T18:01:24.113Z,588.00
2023-03-17T18:05:24.050Z,585.00
2023-03-17T18:09:23.977Z,588.00
2023-03-17T18:13:23.959Z,581.00
2023-03-17T18:17:23.905Z,580.00
2023-03-17T18:21:23.883Z,576.00
2023-03-17T18:25:23.849Z,573.00
2023-03-17T18:29:23.802Z,574.00
2023-03-17T18:33:23.776Z,571.00
2023-03-17T18:37:23.922Z,568.00
2023-03-17T18:41:24.093Z,569.00
2023-03-17T18:45:24.269Z,570.00
2023-03-17T18:49:24.359Z,560.00
2023-03-17T18:53:24.504Z,559.00
2023-03-17T18:57:24.617Z,553.00
2023-03-17T19:01:24.762Z,547.00
2023-03-17T19:05:24.715Z,545.00
2023-03-17T19:09:24.765Z,546.00
2023-03-17T19:13:24.765Z,541.00
2023-03-17T19:17:24.760Z,537.00
2023-03-17T19:21:24.719Z,534.00
2023-03-17T19:25:24.696Z,527.00
2023-03-17T19:29:24.697Z,529.00
2023-03-17T19:33:24.696Z,526.00
2023-03-17T19:37:24.686Z,524.00
2023-03-17T19:41:24.668Z,517.00
2023-03-17T19:45:24.646Z,522.00
2023-03-17T19:49:24.666Z,517.00
2023-03-17T19:53:24.692Z,515.00
2023-03-17T19:57:24.699Z,511.00
2023-03-17T20:01:24.775Z,512.00
2023-03-17T20:05:24.743Z,506.00
2023-03-17T20:09:24.814Z,503.00
2023-03-17T20:13:24.786Z,504.00
2023-03-17T20:17:24.821Z,508.00
2023-03-17T20:21:24.841Z,505.00
2023-03-17T20:25:24.905Z,510.00
2023-03-17T20:29:24.955Z,506.00
2023-03-17T20:33:24.966Z,502.00
2023-03-17T20:37:25.035Z,503.00
2023-03-17T20:41:25.049Z,508.00
2023-03-17T20:45:25.121Z,507.00
2023-03-17T20:49:25.140Z,506.00
2023-03-17T20:53:25.188Z,509.00
2023-03-17T20:57:25.258Z,502.00
2023-03-17T21:01:25.413Z,502.00
2023-03-17T21:05:25.399Z,500.00
2023-03-17T21:09:25.479Z,508.00
2023-03-17T21:13:25.547Z,505.00
2023-03-17T21:17:25.679Z,512.00
2023-03-17T21:21:25.750Z,504.00
2023-03-17T21:25:25.817Z,501.00
2023-03-17T21:29:25.899Z,511.00
2023-03-17T21:33:26.021Z,503.00
2023-03-17T21:37:26.131Z,506.00
2023-03-17T21:41:26.265Z,504.00
2023-03-17T21:45:26.405Z,505.00
2023-03-17T21:49:26.470Z,504.00
2023-03-17T21:53:26.646Z,509.00
2023-03-17T21:57:26.750Z,504.00
2023-03-17T22:01:26.903Z,505.00
2023-03-17T22:05:26.962Z,508.00
2023-03-17T22:09:27.062Z,505.00
2023-03-17T22:13:27.167Z,500.00
2023-03-17T22:17:27.307Z,504.00
2023-03-17T22:21:27.388Z,506.00
2023-03-17T22:25:27.519Z,508.00
2023-03-17T22:29:27.636Z,505.00
2023-03-17T22:33:27.741Z,506.00
2023-03-17T22:37:27.907Z,510.00
2023-03-17T22:41:28.046Z,505.00
2023-03-17T22:45:28.176Z,507.00
2023-03-17T22:49:28.343Z,508.00
2023-03-17T22:53:28.487Z,507.00
2023-03-17T22:57:28.612Z,511.00
2023-03-17T23:01:28.769Z,509.00
2023-03-17T23:05:28.919Z,503.00
2023-03-17T23:09:29.095Z,504.00
2023-03-17T23:13:29.217Z,505.00
2023-03-17T23:17:29.407Z,506.00
2023-03-17T23:21:29.612Z,507.00
2023-03-17T23:25:29.812Z,508.00
2023-03-17T23:29:29.971Z,507.00
2023-03-17T23:33:30.209Z,504.00
2023-03-17T23:37:30.356Z,503.00
2023-03-17T23:41:30.549Z,506.00
2023-03-17T23:45:30.789Z,508.00
2023-03-17T23:49:30.955Z,502.00
2023-03-17T23:53:31.172Z,500.00
2023-03-17T23:57:31.389Z,502.00
